sensor_id;sensor_type;location;lat;lon;timestamp;P1;durP1;ratioP1;P2;durP2;ratioP2
25123;SDS011;13104;51.030;4.686;2022-08-05T00:00:56;11.07;;;8.07;;
25123;SDS011;13104;51.030;4.686;2022-08-05T00:03:22;11.80;;;7.85;;
25123;SDS011;13104;51.030;4.686;2022-08-05T00:05:48;10.27;;;7.90;;
25123;SDS011;13104;51.030;4.686;2022-08-05T00:08:14;10.48;;;7.22;;
25123;SDS011;13104;51.030;4.686;2022-08-05T00:10:40;11.88;;;6.78;;
25123;SDS011;13104;51.030;4.686;2022-08-05T00:13:06;12.90;;;6.43;;
25123;SDS011;13104;51.030;4.686;2022-08-05T00:15:32;10.13;;;7.15;;
25123;SDS011;13104;51.030;4.686;2022-08-05T00:17:58;12.25;;;6.85;;
25123;SDS011;13104;51.030;4.686;2022-08-05T00:20:25;13.90;;;6.63;;
25123;SDS011;13104;51.030;4.686;2022-08-05T00:22:51;10.55;;;6.47;;
25123;SDS011;13104;51.030;4.686;2022-08-05T00:25:17;10.07;;;6.00;;
25123;SDS011;13104;51.030;4.686;2022-08-05T00:27:43;13.40;;;6.45;;
25123;SDS011;13104;51.030;4.686;2022-08-05T00:30:09;15.00;;;6.88;;
25123;SDS011;13104;51.030;4.686;2022-08-05T00:32:35;17.98;;;6.95;;
25123;SDS011;13104;51.030;4.686;2022-08-05T00:35:01;9.82;;;6.88;;
25123;SDS011;13104;51.030;4.686;2022-08-05T00:37:27;11.50;;;6.88;;
25123;SDS011;13104;51.030;4.686;2022-08-05T00:39:53;10.32;;;7.00;;
25123;SDS011;13104;51.030;4.686;2022-08-05T00:42:32;15.02;;;7.28;;
25123;SDS011;13104;51.030;4.686;2022-08-05T00:44:59;14.73;;;6.47;;
25123;SDS011;13104;51.030;4.686;2022-08-05T00:47:25;12.55;;;7.30;;
25123;SDS011;13104;51.030;4.686;2022-08-05T00:49:51;13.70;;;7.13;;
25123;SDS011;13104;51.030;4.686;2022-08-05T00:52:18;10.65;;;7.45;;
25123;SDS011;13104;51.030;4.686;2022-08-05T00:54:44;11.13;;;6.63;;
25123;SDS011;13104;51.030;4.686;2022-08-05T00:57:10;11.52;;;6.80;;
25123;SDS011;13104;51.030;4.686;2022-08-05T00:59:37;10.90;;;6.97;;
25123;SDS011;13104;51.030;4.686;2022-08-05T01:02:03;13.68;;;6.47;;
25123;SDS011;13104;51.030;4.686;2022-08-05T01:04:29;12.63;;;7.10;;
25123;SDS011;13104;51.030;4.686;2022-08-05T01:06:55;17.02;;;7.70;;
25123;SDS011;13104;51.030;4.686;2022-08-05T01:09:21;12.10;;;6.90;;
25123;SDS011;13104;51.030;4.686;2022-08-05T01:11:48;15.40;;;7.68;;
25123;SDS011;13104;51.030;4.686;2022-08-05T01:17:06;12.40;;;7.32;;
25123;SDS011;13104;51.030;4.686;2022-08-05T01:19:35;14.30;;;7.68;;
25123;SDS011;13104;51.030;4.686;2022-08-05T01:30:01;14.75;;;7.05;;
25123;SDS011;13104;51.030;4.686;2022-08-05T01:32:28;15.50;;;7.28;;
25123;SDS011;13104;51.030;4.686;2022-08-05T01:34:57;12.18;;;7.32;;
25123;SDS011;13104;51.030;4.686;2022-08-05T01:39:53;10.70;;;7.00;;
25123;SDS011;13104;51.030;4.686;2022-08-05T01:42:20;17.48;;;7.50;;
25123;SDS011;13104;51.030;4.686;2022-08-05T01:44:48;13.68;;;7.05;;
25123;SDS011;13104;51.030;4.686;2022-08-05T01:47:15;15.10;;;7.32;;
25123;SDS011;13104;51.030;4.686;2022-08-05T01:49:42;15.80;;;7.60;;
25123;SDS011;13104;51.030;4.686;2022-08-05T01:52:09;12.40;;;6.88;;
25123;SDS011;13104;51.030;4.686;2022-08-05T01:54:47;19.20;;;7.32;;
25123;SDS011;13104;51.030;4.686;2022-08-05T01:57:15;13.57;;;6.90;;
25123;SDS011;13104;51.030;4.686;2022-08-05T01:59:43;19.30;;;7.57;;
25123;SDS011;13104;51.030;4.686;2022-08-05T02:02:11;16.15;;;7.28;;
25123;SDS011;13104;51.030;4.686;2022-08-05T02:04:38;18.15;;;7.28;;
25123;SDS011;13104;51.030;4.686;2022-08-05T02:07:05;14.98;;;7.82;;
25123;SDS011;13104;51.030;4.686;2022-08-05T02:09:31;13.57;;;7.45;;
25123;SDS011;13104;51.030;4.686;2022-08-05T02:12:07;13.50;;;8.35;;
25123;SDS011;13104;51.030;4.686;2022-08-05T02:14:36;12.43;;;7.55;;
25123;SDS011;13104;51.030;4.686;2022-08-05T02:17:11;13.18;;;7.47;;
25123;SDS011;13104;51.030;4.686;2022-08-05T02:19:42;15.73;;;7.90;;
25123;SDS011;13104;51.030;4.686;2022-08-05T02:24:39;14.15;;;8.05;;
25123;SDS011;13104;51.030;4.686;2022-08-05T02:27:07;13.85;;;8.15;;
25123;SDS011;13104;51.030;4.686;2022-08-05T02:29:35;13.05;;;8.57;;
25123;SDS011;13104;51.030;4.686;2022-08-05T02:32:01;16.83;;;9.15;;
25123;SDS011;13104;51.030;4.686;2022-08-05T02:34:29;10.82;;;8.80;;
25123;SDS011;13104;51.030;4.686;2022-08-05T02:36:56;19.45;;;10.15;;
25123;SDS011;13104;51.030;4.686;2022-08-05T02:39:23;17.77;;;9.60;;
25123;SDS011;13104;51.030;4.686;2022-08-05T02:41:50;15.02;;;9.57;;
25123;SDS011;13104;51.030;4.686;2022-08-05T02:44:18;16.42;;;9.43;;
25123;SDS011;13104;51.030;4.686;2022-08-05T02:46:45;17.60;;;9.20;;
25123;SDS011;13104;51.030;4.686;2022-08-05T02:49:12;21.52;;;9.57;;
25123;SDS011;13104;51.030;4.686;2022-08-05T02:51:39;14.68;;;9.98;;
25123;SDS011;13104;51.030;4.686;2022-08-05T02:54:05;16.58;;;9.45;;
25123;SDS011;13104;51.030;4.686;2022-08-05T02:56:32;17.17;;;10.27;;
25123;SDS011;13104;51.030;4.686;2022-08-05T02:58:59;20.63;;;10.60;;
25123;SDS011;13104;51.030;4.686;2022-08-05T03:01:26;19.40;;;10.77;;
25123;SDS011;13104;51.030;4.686;2022-08-05T03:03:59;13.57;;;9.85;;
25123;SDS011;13104;51.030;4.686;2022-08-05T03:06:26;18.02;;;10.13;;
25123;SDS011;13104;51.030;4.686;2022-08-05T03:08:52;25.45;;;10.73;;
25123;SDS011;13104;51.030;4.686;2022-08-05T03:11:23;16.52;;;10.55;;
25123;SDS011;13104;51.030;4.686;2022-08-05T03:13:50;22.08;;;11.27;;
25123;SDS011;13104;51.030;4.686;2022-08-05T03:16:16;20.40;;;10.38;;
25123;SDS011;13104;51.030;4.686;2022-08-05T03:18:42;18.65;;;10.90;;
25123;SDS011;13104;51.030;4.686;2022-08-05T03:21:09;18.42;;;11.20;;
25123;SDS011;13104;51.030;4.686;2022-08-05T03:23:36;24.25;;;11.68;;
25123;SDS011;13104;51.030;4.686;2022-08-05T03:26:03;19.52;;;11.02;;
25123;SDS011;13104;51.030;4.686;2022-08-05T03:28:30;25.77;;;12.57;;
25123;SDS011;13104;51.030;4.686;2022-08-05T03:30:56;19.75;;;11.95;;
25123;SDS011;13104;51.030;4.686;2022-08-05T03:33:23;21.30;;;11.52;;
25123;SDS011;13104;51.030;4.686;2022-08-05T03:35:49;22.33;;;11.70;;
25123;SDS011;13104;51.030;4.686;2022-08-05T03:38:16;20.17;;;11.75;;
25123;SDS011;13104;51.030;4.686;2022-08-05T03:40:43;18.65;;;10.82;;
25123;SDS011;13104;51.030;4.686;2022-08-05T03:43:09;18.70;;;11.23;;
25123;SDS011;13104;51.030;4.686;2022-08-05T03:45:35;19.92;;;11.20;;
25123;SDS011;13104;51.030;4.686;2022-08-05T03:48:02;23.30;;;11.27;;
25123;SDS011;13104;51.030;4.686;2022-08-05T03:50:32;21.98;;;11.38;;
25123;SDS011;13104;51.030;4.686;2022-08-05T03:53:05;23.73;;;11.18;;
25123;SDS011;13104;51.030;4.686;2022-08-05T03:55:34;18.85;;;10.82;;
25123;SDS011;13104;51.030;4.686;2022-08-05T03:58:02;18.50;;;10.98;;
25123;SDS011;13104;51.030;4.686;2022-08-05T04:00:29;21.33;;;10.30;;
25123;SDS011;13104;51.030;4.686;2022-08-05T04:03:00;19.02;;;10.63;;
25123;SDS011;13104;51.030;4.686;2022-08-05T04:05:34;19.35;;;10.68;;
25123;SDS011;13104;51.030;4.686;2022-08-05T04:08:01;17.95;;;11.07;;
25123;SDS011;13104;51.030;4.686;2022-08-05T04:10:28;17.38;;;10.38;;
25123;SDS011;13104;51.030;4.686;2022-08-05T04:12:55;17.52;;;10.18;;
25123;SDS011;13104;51.030;4.686;2022-08-05T04:15:21;19.67;;;10.52;;
25123;SDS011;13104;51.030;4.686;2022-08-05T04:17:47;21.40;;;10.50;;
25123;SDS011;13104;51.030;4.686;2022-08-05T04:20:21;16.40;;;10.90;;
25123;SDS011;13104;51.030;4.686;2022-08-05T04:22:47;17.52;;;10.77;;
25123;SDS011;13104;51.030;4.686;2022-08-05T04:25:13;21.13;;;10.82;;
25123;SDS011;13104;51.030;4.686;2022-08-05T04:27:39;20.95;;;10.88;;
25123;SDS011;13104;51.030;4.686;2022-08-05T04:30:06;20.42;;;11.02;;
25123;SDS011;13104;51.030;4.686;2022-08-05T04:32:33;17.17;;;10.18;;
25123;SDS011;13104;51.030;4.686;2022-08-05T04:34:59;22.73;;;11.02;;
25123;SDS011;13104;51.030;4.686;2022-08-05T04:37:25;23.10;;;11.23;;
25123;SDS011;13104;51.030;4.686;2022-08-05T04:39:51;18.27;;;10.77;;
25123;SDS011;13104;51.030;4.686;2022-08-05T04:42:17;15.15;;;10.88;;
25123;SDS011;13104;51.030;4.686;2022-08-05T04:44:44;19.17;;;10.93;;
25123;SDS011;13104;51.030;4.686;2022-08-05T04:47:10;18.23;;;10.80;;
25123;SDS011;13104;51.030;4.686;2022-08-05T04:49:39;19.60;;;10.70;;
25123;SDS011;13104;51.030;4.686;2022-08-05T04:52:05;18.45;;;11.23;;
25123;SDS011;13104;51.030;4.686;2022-08-05T04:54:31;17.48;;;10.70;;
25123;SDS011;13104;51.030;4.686;2022-08-05T04:56:57;21.92;;;10.32;;
25123;SDS011;13104;51.030;4.686;2022-08-05T04:59:23;23.33;;;11.15;;
25123;SDS011;13104;51.030;4.686;2022-08-05T05:01:50;18.48;;;10.77;;
25123;SDS011;13104;51.030;4.686;2022-08-05T05:04:16;17.02;;;10.52;;
25123;SDS011;13104;51.030;4.686;2022-08-05T05:06:42;23.05;;;11.13;;
25123;SDS011;13104;51.030;4.686;2022-08-05T05:09:09;15.77;;;11.27;;
25123;SDS011;13104;51.030;4.686;2022-08-05T05:11:35;19.52;;;11.63;;
25123;SDS011;13104;51.030;4.686;2022-08-05T05:14:01;21.35;;;10.90;;
25123;SDS011;13104;51.030;4.686;2022-08-05T05:16:28;22.60;;;10.88;;
25123;SDS011;13104;51.030;4.686;2022-08-05T05:18:54;20.23;;;10.98;;
25123;SDS011;13104;51.030;4.686;2022-08-05T05:21:20;17.50;;;10.38;;
25123;SDS011;13104;51.030;4.686;2022-08-05T05:23:46;19.73;;;11.07;;
25123;SDS011;13104;51.030;4.686;2022-08-05T05:26:12;14.98;;;10.93;;
25123;SDS011;13104;51.030;4.686;2022-08-05T05:28:38;23.60;;;11.55;;
25123;SDS011;13104;51.030;4.686;2022-08-05T05:31:04;19.05;;;12.02;;
25123;SDS011;13104;51.030;4.686;2022-08-05T05:33:30;21.98;;;15.10;;
25123;SDS011;13104;51.030;4.686;2022-08-05T05:35:56;29.60;;;18.15;;
25123;SDS011;13104;51.030;4.686;2022-08-05T05:38:22;21.35;;;14.88;;
25123;SDS011;13104;51.030;4.686;2022-08-05T05:40:48;23.38;;;15.80;;
25123;SDS011;13104;51.030;4.686;2022-08-05T05:43:15;22.02;;;15.25;;
25123;SDS011;13104;51.030;4.686;2022-08-05T05:45:41;19.08;;;11.18;;
25123;SDS011;13104;51.030;4.686;2022-08-05T05:48:07;18.77;;;11.40;;
25123;SDS011;13104;51.030;4.686;2022-08-05T05:50:33;14.55;;;8.82;;
25123;SDS011;13104;51.030;4.686;2022-08-05T05:53:00;17.33;;;9.02;;
25123;SDS011;13104;51.030;4.686;2022-08-05T05:55:26;17.98;;;8.75;;
25123;SDS011;13104;51.030;4.686;2022-08-05T05:57:52;18.00;;;9.35;;
25123;SDS011;13104;51.030;4.686;2022-08-05T06:00:19;19.08;;;8.70;;
25123;SDS011;13104;51.030;4.686;2022-08-05T06:02:46;18.73;;;8.68;;
25123;SDS011;13104;51.030;4.686;2022-08-05T06:05:13;16.83;;;8.40;;
25123;SDS011;13104;51.030;4.686;2022-08-05T06:07:39;17.63;;;8.63;;
25123;SDS011;13104;51.030;4.686;2022-08-05T06:10:06;18.90;;;8.63;;
25123;SDS011;13104;51.030;4.686;2022-08-05T06:12:33;16.83;;;8.15;;
25123;SDS011;13104;51.030;4.686;2022-08-05T06:14:59;13.88;;;8.45;;
25123;SDS011;13104;51.030;4.686;2022-08-05T06:17:26;14.32;;;7.95;;
25123;SDS011;13104;51.030;4.686;2022-08-05T06:19:52;15.82;;;8.05;;
25123;SDS011;13104;51.030;4.686;2022-08-05T06:22:21;14.98;;;7.72;;
25123;SDS011;13104;51.030;4.686;2022-08-05T06:24:48;19.33;;;8.45;;
25123;SDS011;13104;51.030;4.686;2022-08-05T06:27:14;13.60;;;7.63;;
25123;SDS011;13104;51.030;4.686;2022-08-05T06:29:40;14.20;;;7.72;;
25123;SDS011;13104;51.030;4.686;2022-08-05T06:32:08;18.63;;;7.85;;
25123;SDS011;13104;51.030;4.686;2022-08-05T06:34:34;15.55;;;7.60;;
25123;SDS011;13104;51.030;4.686;2022-08-05T06:37:00;11.60;;;7.78;;
25123;SDS011;13104;51.030;4.686;2022-08-05T06:39:26;15.15;;;7.65;;
25123;SDS011;13104;51.030;4.686;2022-08-05T06:41:53;17.63;;;7.53;;
25123;SDS011;13104;51.030;4.686;2022-08-05T06:44:19;16.85;;;7.75;;
25123;SDS011;13104;51.030;4.686;2022-08-05T06:46:45;14.65;;;7.82;;
25123;SDS011;13104;51.030;4.686;2022-08-05T06:49:11;17.48;;;7.38;;
25123;SDS011;13104;51.030;4.686;2022-08-05T06:51:37;13.02;;;7.53;;
25123;SDS011;13104;51.030;4.686;2022-08-05T06:54:03;12.88;;;7.25;;
25123;SDS011;13104;51.030;4.686;2022-08-05T06:56:30;15.60;;;7.03;;
25123;SDS011;13104;51.030;4.686;2022-08-05T06:58:56;12.02;;;6.93;;
25123;SDS011;13104;51.030;4.686;2022-08-05T07:01:23;13.50;;;6.93;;
25123;SDS011;13104;51.030;4.686;2022-08-05T07:03:49;15.13;;;6.90;;
25123;SDS011;13104;51.030;4.686;2022-08-05T07:06:15;19.88;;;7.10;;
25123;SDS011;13104;51.030;4.686;2022-08-05T07:08:41;17.50;;;7.07;;
25123;SDS011;13104;51.030;4.686;2022-08-05T07:11:08;19.52;;;7.15;;
25123;SDS011;13104;51.030;4.686;2022-08-05T07:13:34;12.65;;;6.90;;
25123;SDS011;13104;51.030;4.686;2022-08-05T07:16:18;11.23;;;5.70;;
25123;SDS011;13104;51.030;4.686;2022-08-05T07:19:03;13.93;;;7.05;;
25123;SDS011;13104;51.030;4.686;2022-08-05T07:21:29;14.07;;;6.22;;
25123;SDS011;13104;51.030;4.686;2022-08-05T07:23:56;13.35;;;6.32;;
25123;SDS011;13104;51.030;4.686;2022-08-05T07:26:22;15.35;;;6.00;;
25123;SDS011;13104;51.030;4.686;2022-08-05T07:28:48;11.95;;;6.30;;
25123;SDS011;13104;51.030;4.686;2022-08-05T07:31:15;9.48;;;5.50;;
25123;SDS011;13104;51.030;4.686;2022-08-05T07:33:41;11.38;;;5.82;;
25123;SDS011;13104;51.030;4.686;2022-08-05T07:36:07;10.00;;;5.63;;
25123;SDS011;13104;51.030;4.686;2022-08-05T07:38:34;8.93;;;4.57;;
25123;SDS011;13104;51.030;4.686;2022-08-05T07:41:07;16.83;;;5.65;;
25123;SDS011;13104;51.030;4.686;2022-08-05T07:43:33;13.80;;;5.53;;
25123;SDS011;13104;51.030;4.686;2022-08-05T07:45:59;10.27;;;5.70;;
25123;SDS011;13104;51.030;4.686;2022-08-05T07:48:25;10.05;;;5.47;;
25123;SDS011;13104;51.030;4.686;2022-08-05T07:50:52;9.18;;;4.90;;
25123;SDS011;13104;51.030;4.686;2022-08-05T07:53:19;12.57;;;5.10;;
25123;SDS011;13104;51.030;4.686;2022-08-05T07:55:45;9.95;;;4.75;;
25123;SDS011;13104;51.030;4.686;2022-08-05T07:58:11;11.27;;;4.55;;
25123;SDS011;13104;51.030;4.686;2022-08-05T08:00:37;12.70;;;5.18;;
25123;SDS011;13104;51.030;4.686;2022-08-05T08:03:08;11.80;;;4.85;;
25123;SDS011;13104;51.030;4.686;2022-08-05T08:05:34;13.07;;;4.10;;
25123;SDS011;13104;51.030;4.686;2022-08-05T08:08:01;11.93;;;3.70;;
25123;SDS011;13104;51.030;4.686;2022-08-05T08:10:27;8.25;;;3.50;;
25123;SDS011;13104;51.030;4.686;2022-08-05T08:12:53;8.00;;;2.88;;
25123;SDS011;13104;51.030;4.686;2022-08-05T08:15:19;7.90;;;3.63;;
25123;SDS011;13104;51.030;4.686;2022-08-05T08:17:45;9.98;;;3.50;;
25123;SDS011;13104;51.030;4.686;2022-08-05T08:20:12;8.95;;;3.60;;
25123;SDS011;13104;51.030;4.686;2022-08-05T08:22:38;12.65;;;2.95;;
25123;SDS011;13104;51.030;4.686;2022-08-05T08:25:04;6.53;;;2.55;;
25123;SDS011;13104;51.030;4.686;2022-08-05T08:27:30;8.77;;;2.67;;
25123;SDS011;13104;51.030;4.686;2022-08-05T08:29:57;8.68;;;2.70;;
25123;SDS011;13104;51.030;4.686;2022-08-05T08:32:23;9.48;;;2.85;;
25123;SDS011;13104;51.030;4.686;2022-08-05T08:34:49;10.77;;;2.70;;
25123;SDS011;13104;51.030;4.686;2022-08-05T08:37:16;8.25;;;2.85;;
25123;SDS011;13104;51.030;4.686;2022-08-05T08:39:42;6.57;;;2.28;;
25123;SDS011;13104;51.030;4.686;2022-08-05T08:42:08;7.68;;;2.35;;
25123;SDS011;13104;51.030;4.686;2022-08-05T08:44:35;5.32;;;2.28;;
25123;SDS011;13104;51.030;4.686;2022-08-05T08:47:01;7.35;;;2.25;;
25123;SDS011;13104;51.030;4.686;2022-08-05T08:49:28;6.53;;;2.13;;
25123;SDS011;13104;51.030;4.686;2022-08-05T08:52:07;8.55;;;2.67;;
25123;SDS011;13104;51.030;4.686;2022-08-05T08:54:36;7.00;;;2.40;;
25123;SDS011;13104;51.030;4.686;2022-08-05T08:57:06;8.65;;;2.75;;
25123;SDS011;13104;51.030;4.686;2022-08-05T08:59:32;5.75;;;2.50;;
25123;SDS011;13104;51.030;4.686;2022-08-05T09:01:59;7.90;;;2.63;;
25123;SDS011;13104;51.030;4.686;2022-08-05T09:04:26;6.03;;;2.50;;
25123;SDS011;13104;51.030;4.686;2022-08-05T09:06:52;6.47;;;2.30;;
25123;SDS011;13104;51.030;4.686;2022-08-05T09:09:18;14.25;;;2.90;;
25123;SDS011;13104;51.030;4.686;2022-08-05T09:11:44;7.38;;;2.90;;
25123;SDS011;13104;51.030;4.686;2022-08-05T09:14:10;4.95;;;2.35;;
25123;SDS011;13104;51.030;4.686;2022-08-05T09:16:37;8.77;;;2.60;;
25123;SDS011;13104;51.030;4.686;2022-08-05T09:19:03;5.13;;;2.10;;
25123;SDS011;13104;51.030;4.686;2022-08-05T09:21:32;8.25;;;2.10;;
25123;SDS011;13104;51.030;4.686;2022-08-05T09:24:05;6.20;;;1.70;;
25123;SDS011;13104;51.030;4.686;2022-08-05T09:26:35;7.93;;;1.60;;
25123;SDS011;13104;51.030;4.686;2022-08-05T09:29:03;6.72;;;1.70;;
25123;SDS011;13104;51.030;4.686;2022-08-05T09:31:30;4.30;;;1.67;;
25123;SDS011;13104;51.030;4.686;2022-08-05T09:33:58;5.32;;;1.70;;
25123;SDS011;13104;51.030;4.686;2022-08-05T09:39:04;6.80;;;1.98;;
25123;SDS011;13104;51.030;4.686;2022-08-05T09:41:30;7.68;;;1.50;;
25123;SDS011;13104;51.030;4.686;2022-08-05T09:43:57;5.75;;;1.50;;
25123;SDS011;13104;51.030;4.686;2022-08-05T09:48:50;6.03;;;1.70;;
25123;SDS011;13104;51.030;4.686;2022-08-05T09:52:04;5.35;;;1.63;;
25123;SDS011;13104;51.030;4.686;2022-08-05T09:54:10;5.32;;;1.52;;
25123;SDS011;13104;51.030;4.686;2022-08-05T09:56:46;7.68;;;1.88;;
25123;SDS011;13104;51.030;4.686;2022-08-05T09:59:30;3.63;;;1.35;;
25123;SDS011;13104;51.030;4.686;2022-08-05T10:02:29;3.33;;;1.10;;
25123;SDS011;13104;51.030;4.686;2022-08-05T10:10:52;3.60;;;1.33;;
25123;SDS011;13104;51.030;4.686;2022-08-05T10:15:53;3.88;;;1.10;;
25123;SDS011;13104;51.030;4.686;2022-08-05T10:18:22;4.72;;;1.30;;
25123;SDS011;13104;51.030;4.686;2022-08-05T10:20:57;4.28;;;1.33;;
25123;SDS011;13104;51.030;4.686;2022-08-05T10:23:24;5.22;;;1.20;;
25123;SDS011;13104;51.030;4.686;2022-08-05T10:25:51;4.80;;;1.30;;
25123;SDS011;13104;51.030;4.686;2022-08-05T10:31:10;4.55;;;1.23;;
25123;SDS011;13104;51.030;4.686;2022-08-05T10:34:07;5.60;;;1.08;;
25123;SDS011;13104;51.030;4.686;2022-08-05T10:36:36;4.13;;;1.10;;
25123;SDS011;13104;51.030;4.686;2022-08-05T10:42:27;4.00;;;1.23;;
25123;SDS011;13104;51.030;4.686;2022-08-05T10:45:15;5.28;;;1.48;;
25123;SDS011;13104;51.030;4.686;2022-08-05T10:56:58;2.72;;;1.10;;
25123;SDS011;13104;51.030;4.686;2022-08-05T10:59:46;2.78;;;0.98;;
25123;SDS011;13104;51.030;4.686;2022-08-05T11:02:15;1.98;;;0.90;;
25123;SDS011;13104;51.030;4.686;2022-08-05T11:07:27;4.00;;;1.20;;
25123;SDS011;13104;51.030;4.686;2022-08-05T11:10:34;2.92;;;1.00;;
25123;SDS011;13104;51.030;4.686;2022-08-05T11:15:54;4.80;;;1.00;;
25123;SDS011;13104;51.030;4.686;2022-08-05T11:19:22;4.63;;;1.10;;
25123;SDS011;13104;51.030;4.686;2022-08-05T11:21:40;2.35;;;0.95;;
25123;SDS011;13104;51.030;4.686;2022-08-05T11:24:06;5.82;;;1.05;;
25123;SDS011;13104;51.030;4.686;2022-08-05T11:30:10;4.68;;;1.45;;
25123;SDS011;13104;51.030;4.686;2022-08-05T11:32:48;3.08;;;0.90;;
25123;SDS011;13104;51.030;4.686;2022-08-05T11:35:54;6.18;;;1.20;;
25123;SDS011;13104;51.030;4.686;2022-08-05T11:38:49;3.17;;;1.05;;
25123;SDS011;13104;51.030;4.686;2022-08-05T11:41:13;2.63;;;0.80;;
25123;SDS011;13104;51.030;4.686;2022-08-05T11:43:56;3.42;;;1.00;;
25123;SDS011;13104;51.030;4.686;2022-08-05T11:55:04;3.97;;;1.10;;
25123;SDS011;13104;51.030;4.686;2022-08-05T12:00:38;3.95;;;0.77;;
25123;SDS011;13104;51.030;4.686;2022-08-05T12:03:17;3.67;;;0.95;;
25123;SDS011;13104;51.030;4.686;2022-08-05T12:05:47;6.10;;;0.90;;
25123;SDS011;13104;51.030;4.686;2022-08-05T12:08:14;2.97;;;0.90;;
25123;SDS011;13104;51.030;4.686;2022-08-05T12:10:46;6.82;;;0.90;;
25123;SDS011;13104;51.030;4.686;2022-08-05T12:13:14;3.30;;;1.02;;
25123;SDS011;13104;51.030;4.686;2022-08-05T12:15:49;3.22;;;1.08;;
25123;SDS011;13104;51.030;4.686;2022-08-05T12:18:16;3.15;;;0.90;;
25123;SDS011;13104;51.030;4.686;2022-08-05T12:20:42;2.63;;;0.75;;
25123;SDS011;13104;51.030;4.686;2022-08-05T12:23:09;2.72;;;1.02;;
25123;SDS011;13104;51.030;4.686;2022-08-05T12:25:52;4.97;;;1.20;;
25123;SDS011;13104;51.030;4.686;2022-08-05T12:28:33;2.97;;;1.00;;
25123;SDS011;13104;51.030;4.686;2022-08-05T12:30:59;3.55;;;1.10;;
25123;SDS011;13104;51.030;4.686;2022-08-05T12:33:26;2.40;;;1.00;;
25123;SDS011;13104;51.030;4.686;2022-08-05T12:35:52;4.65;;;1.10;;
25123;SDS011;13104;51.030;4.686;2022-08-05T12:38:25;3.13;;;0.70;;
25123;SDS011;13104;51.030;4.686;2022-08-05T12:40:51;4.72;;;1.00;;
25123;SDS011;13104;51.030;4.686;2022-08-05T12:43:18;3.25;;;1.02;;
25123;SDS011;13104;51.030;4.686;2022-08-05T12:45:54;2.08;;;0.80;;
25123;SDS011;13104;51.030;4.686;2022-08-05T12:48:23;3.53;;;0.70;;
25123;SDS011;13104;51.030;4.686;2022-08-05T12:53:39;4.05;;;0.80;;
25123;SDS011;13104;51.030;4.686;2022-08-05T12:56:21;3.45;;;0.60;;
25123;SDS011;13104;51.030;4.686;2022-08-05T13:01:37;4.15;;;0.70;;
25123;SDS011;13104;51.030;4.686;2022-08-05T13:04:07;3.20;;;0.90;;
25123;SDS011;13104;51.030;4.686;2022-08-05T13:06:36;3.40;;;0.82;;
25123;SDS011;13104;51.030;4.686;2022-08-05T13:09:09;2.03;;;0.60;;
25123;SDS011;13104;51.030;4.686;2022-08-05T13:11:40;2.17;;;0.60;;
25123;SDS011;13104;51.030;4.686;2022-08-05T13:14:17;4.10;;;0.60;;
25123;SDS011;13104;51.030;4.686;2022-08-05T13:16:53;4.18;;;1.00;;
25123;SDS011;13104;51.030;4.686;2022-08-05T13:19:21;4.32;;;0.80;;
25123;SDS011;13104;51.030;4.686;2022-08-05T13:21:47;3.15;;;1.05;;
25123;SDS011;13104;51.030;4.686;2022-08-05T13:24:14;1.27;;;0.60;;
25123;SDS011;13104;51.030;4.686;2022-08-05T13:26:41;4.80;;;0.90;;
25123;SDS011;13104;51.030;4.686;2022-08-05T13:29:07;2.05;;;0.60;;
25123;SDS011;13104;51.030;4.686;2022-08-05T13:31:33;5.80;;;0.80;;
25123;SDS011;13104;51.030;4.686;2022-08-05T13:34:00;2.60;;;0.82;;
25123;SDS011;13104;51.030;4.686;2022-08-05T13:36:26;4.20;;;0.57;;
25123;SDS011;13104;51.030;4.686;2022-08-05T13:38:52;4.63;;;0.68;;
25123;SDS011;13104;51.030;4.686;2022-08-05T13:44:23;9.73;;;0.90;;
25123;SDS011;13104;51.030;4.686;2022-08-05T13:46:50;1.30;;;0.70;;
25123;SDS011;13104;51.030;4.686;2022-08-05T13:49:16;7.47;;;0.80;;
25123;SDS011;13104;51.030;4.686;2022-08-05T13:51:42;4.90;;;0.82;;
25123;SDS011;13104;51.030;4.686;2022-08-05T13:54:08;3.90;;;0.70;;
25123;SDS011;13104;51.030;4.686;2022-08-05T13:56:37;3.58;;;0.80;;
25123;SDS011;13104;51.030;4.686;2022-08-05T13:59:03;7.63;;;0.73;;
25123;SDS011;13104;51.030;4.686;2022-08-05T14:01:31;2.67;;;0.60;;
25123;SDS011;13104;51.030;4.686;2022-08-05T14:04:04;5.90;;;0.70;;
25123;SDS011;13104;51.030;4.686;2022-08-05T14:07:06;2.55;;;0.70;;
25123;SDS011;13104;51.030;4.686;2022-08-05T14:09:33;2.33;;;0.63;;
25123;SDS011;13104;51.030;4.686;2022-08-05T14:12:20;1.85;;;0.77;;
25123;SDS011;13104;51.030;4.686;2022-08-05T14:14:46;3.08;;;0.70;;
25123;SDS011;13104;51.030;4.686;2022-08-05T14:17:12;1.67;;;0.60;;
25123;SDS011;13104;51.030;4.686;2022-08-05T14:19:39;5.80;;;0.73;;
25123;SDS011;13104;51.030;4.686;2022-08-05T14:22:05;2.50;;;0.75;;
25123;SDS011;13104;51.030;4.686;2022-08-05T14:24:36;3.97;;;0.80;;
25123;SDS011;13104;51.030;4.686;2022-08-05T14:27:07;4.10;;;0.63;;
25123;SDS011;13104;51.030;4.686;2022-08-05T14:29:40;2.08;;;0.80;;
25123;SDS011;13104;51.030;4.686;2022-08-05T14:32:19;1.58;;;0.60;;
25123;SDS011;13104;51.030;4.686;2022-08-05T14:38:29;1.67;;;0.70;;
25123;SDS011;13104;51.030;4.686;2022-08-05T14:41:05;2.85;;;0.70;;
25123;SDS011;13104;51.030;4.686;2022-08-05T14:43:32;4.10;;;0.85;;
25123;SDS011;13104;51.030;4.686;2022-08-05T14:48:55;3.83;;;0.70;;
25123;SDS011;13104;51.030;4.686;2022-08-05T14:51:22;2.35;;;0.70;;
25123;SDS011;13104;51.030;4.686;2022-08-05T14:53:51;2.47;;;0.70;;
25123;SDS011;13104;51.030;4.686;2022-08-05T14:56:17;4.95;;;0.82;;
25123;SDS011;13104;51.030;4.686;2022-08-05T14:58:43;4.47;;;0.93;;
25123;SDS011;13104;51.030;4.686;2022-08-05T15:01:10;4.45;;;0.60;;
25123;SDS011;13104;51.030;4.686;2022-08-05T15:03:36;3.15;;;1.00;;
25123;SDS011;13104;51.030;4.686;2022-08-05T15:06:04;5.47;;;0.85;;
25123;SDS011;13104;51.030;4.686;2022-08-05T15:08:38;1.63;;;0.70;;
25123;SDS011;13104;51.030;4.686;2022-08-05T15:11:04;2.00;;;0.63;;
25123;SDS011;13104;51.030;4.686;2022-08-05T15:13:35;1.92;;;0.80;;
25123;SDS011;13104;51.030;4.686;2022-08-05T15:16:02;3.90;;;0.75;;
25123;SDS011;13104;51.030;4.686;2022-08-05T15:18:28;3.40;;;1.00;;
25123;SDS011;13104;51.030;4.686;2022-08-05T15:20:55;2.75;;;0.80;;
25123;SDS011;13104;51.030;4.686;2022-08-05T15:23:26;2.05;;;0.60;;
25123;SDS011;13104;51.030;4.686;2022-08-05T15:25:52;1.48;;;0.57;;
25123;SDS011;13104;51.030;4.686;2022-08-05T15:28:18;3.08;;;0.90;;
25123;SDS011;13104;51.030;4.686;2022-08-05T15:30:45;3.20;;;0.90;;
25123;SDS011;13104;51.030;4.686;2022-08-05T15:33:11;7.55;;;0.90;;
25123;SDS011;13104;51.030;4.686;2022-08-05T15:35:37;6.60;;;1.10;;
25123;SDS011;13104;51.030;4.686;2022-08-05T15:38:03;4.15;;;0.80;;
25123;SDS011;13104;51.030;4.686;2022-08-05T15:40:32;4.10;;;0.63;;
25123;SDS011;13104;51.030;4.686;2022-08-05T15:42:59;11.23;;;0.95;;
25123;SDS011;13104;51.030;4.686;2022-08-05T15:45:25;5.28;;;0.90;;
25123;SDS011;13104;51.030;4.686;2022-08-05T15:50:40;4.20;;;0.73;;
25123;SDS011;13104;51.030;4.686;2022-08-05T15:53:06;1.38;;;0.60;;
25123;SDS011;13104;51.030;4.686;2022-08-05T15:55:32;3.88;;;0.80;;
25123;SDS011;13104;51.030;4.686;2022-08-05T15:57:58;4.35;;;0.63;;
25123;SDS011;13104;51.030;4.686;2022-08-05T16:00:24;4.18;;;0.80;;
25123;SDS011;13104;51.030;4.686;2022-08-05T16:02:50;4.47;;;0.80;;
25123;SDS011;13104;51.030;4.686;2022-08-05T16:05:16;2.65;;;0.70;;
25123;SDS011;13104;51.030;4.686;2022-08-05T16:07:42;2.92;;;0.70;;
25123;SDS011;13104;51.030;4.686;2022-08-05T16:10:09;4.57;;;0.80;;